METAR Data
IDs: Format: Raw Decoded Include TAF

Data at: 0813 UTC 18 Sep 2021

EETN 180750Z 09014KT 9999 BKN049 10/00 Q1025 NOSIG